Arlington, Georgia
Current Conditions -  °F | °C
As of 3:55 PM on Thursday 20 Nov 2014 (Local Time) from KBIJ Reporting Station
Clear Clear  
Wind Chill: 66°   Ceiling: Unl
Heat Index: 66°   Visibility: 10mi
Dew Point: 41°   Wind: 6mph
Humidity: 40%   Direction: 300°WNW
Pressure: 30.21"   Gusts: NA
Location:  31.44°N, 84.72°W
Report Text: KBIJ 202055Z AUTO 30005KT 10SM CLR 19/05 A3021 RMK AO2
Loading
Personal Weather Stations






























Interactive Weather Map New forecast layout! Learn more

10-Day Weather Forecast

Advertisements
Track Severe Weather on mobile